Архив погоды в Первомайском

Метеограмма Первомайское
Четверг, 19 Сентября
Время местн. Темп Ветер Видим Явления Облачность нижн/средн/верх Атм. давл. Влжн Точка росы ВНГО R Сост. почвы Tg s
Напр Скр Прв ур.ст ур.м изм
15:00 +22° Ю-З 6 15 10 км ливневый дождь преимущественно облачно 748 758 -0.1 38% +7° 1 км - - - -
12:00 +20.8° Ю,Ю-З 4 - 10 км - облачно 748 758 -0.7 47% +9.1° 1 км - - - -
09:00 +17.1° Ю 4 - 10 км - преимущественно облачно 749 759 -1.3 62% +9.7° более 2.5 км - - - -
06:00 +12.2° Ю 2 - 10 км - облачно 750 760 -0.9 79% +8.6° более 2.5 км 0 Влажная (без луж) +10° -
03:00 +12° Ю,Ю-В 2 - 10 км - облачно с прояснениями 751 761 -0.6 73% +7.3° более 2.5 км - - - -
00:00 +12.7° Ю 1 - 10 км - ясно 751 762 +0.1 69% +7.1° более 2.5 км - - - -
Среда, 18 Сентября
Время местн. Темп Ветер Видим Явления Облачность нижн/средн/верх Атм. давл. Влжн Точка росы ВНГО R Сост. почвы Tg s
Напр Скр Прв ур.ст ур.м изм
21:00 +13.8° Ю 1 - 10 км - ясно 751 762 +0.2 63% +6.8° более 2.5 км - - - -
18:00 +17.4° Ю,Ю-З 2 - 10 км - переменная облачность 751 761 +0.2 47% +5.9° более 2.5 км 0.1 - - -
15:00 +18.4° Ю-З 3 - 10 км - переменная облачность 751 761 -0.2 45% +6.2° 1 км - - - -
12:00 +17.2° Ю-З 2 - 10 км облака рассеиваются {ливневые осадки} переменная облачность 751 761 -0.1 57% +8.6° более 2.5 км - - - -
09:00 +11.3° Ю 1 - 4 км умеренный или сильный ливневый дождь облачно 751 762 +0.6 86% +9.1° 1 км - - - -
06:00 +10° Ю 1 - 10 км - преимущественно облачно 751 761 +1.3 90% +8.5° более 2.5 км 2 Сырая (есть малые или большие лужи) +9° -
03:00 +11.9° Ю-З 2 - 10 км - преимущественно облачно 749 760 +1 89% +10.2° более 2.5 км - - - -
00:00 +13.4° Ю 2 12 10 км ливневый дождь {гроза} облачно 748 759 +1.1 86% +11.1° 1 км - - - -
Вторник, 17 Сентября
Время местн. Темп Ветер Видим Явления Облачность нижн/средн/верх Атм. давл. Влжн Точка росы ВНГО R Сост. почвы Tg s
Напр Скр Прв ур.ст ур.м изм
21:00 +16.7° Ю 2 - 10 км зарница преимущественно облачно 747 758 -0.9 61% +9.1° 1 км - - - -
18:00 +19.5° Ю 2 - 10 км - переменная облачность 748 758 -1 51% +9° более 2.5 км 0 - - -
15:00 +22.8° Ю,Ю-З 4 - 10 км - облачно с прояснениями 749 759 -1.2 37% +7.5° 1 км - - - -
12:00 +21.5° Ю,Ю-З 2 - 10 км - переменная облачность 750 760 -0.8 51% +11° 1 км - - - -
09:00 +14.1° Ю 2 - 10 км - переменная облачность 751 762 -0.4 83% +11.2° более 2.5 км - - - -
06:00 +10.1° Ю 2 - 4 км дымка незначительная облачность 752 762 -0.2 93% +9° более 2.5 км 0 Сырая (есть малые или большие лужи) +8° -
03:00 +10.9° Ю 2 - 10 км - ясно 752 762 -0.7 92% +9.7° более 2.5 км - - - -
00:00 +11.9° Ю,Ю-В 2 - 10 км - ясно 752 763 -0.3 92% +10.7° более 2.5 км - - - -
Понедельник, 16 Сентября
Время местн. Темп Ветер Видим Явления Облачность нижн/средн/верх Атм. давл. Влжн Точка росы ВНГО R Сост. почвы Tg s
Напр Скр Прв ур.ст ур.м изм
21:00 +13.9° Ю-В 2 - 10 км - ясно 753 763 -0.2 85% +11.5° более 2.5 км - - - -
18:00 +15.6° В,Ю-В 1 - 10 км - переменная облачность 753 763 -0.7 81% +12.4° более 2.5 км 0 - - -
15:00 +15.8° Ю 2 - 10 км - облачно с прояснениями 753 764 -0.8 77% +11.7° 600 м - - - -
12:00 +12.3° Ю 2 - 10 км небо без изменений {морось} облачно 754 765 -0.2 87% +10.2° 600 м - - - -